sensor_id;sensor_type;location;lat;lon;timestamp;P1;durP1;ratioP1;P2;durP2;ratioP2
62353;SDS011;48391;49.184;2.418;2023-01-09T00:02:23;4.57;;;1.08;;
62353;SDS011;48391;49.184;2.418;2023-01-09T00:04:49;2.50;;;1.15;;
62353;SDS011;48391;49.184;2.418;2023-01-09T00:07:15;2.72;;;0.60;;
62353;SDS011;48391;49.184;2.418;2023-01-09T00:09:41;2.10;;;0.55;;
62353;SDS011;48391;49.184;2.418;2023-01-09T00:12:07;2.90;;;0.85;;
62353;SDS011;48391;49.184;2.418;2023-01-09T00:14:33;1.27;;;0.75;;
62353;SDS011;48391;49.184;2.418;2023-01-09T00:16:59;2.13;;;0.65;;
62353;SDS011;48391;49.184;2.418;2023-01-09T00:19:25;5.45;;;0.60;;
62353;SDS011;48391;49.184;2.418;2023-01-09T00:21:51;3.63;;;0.52;;
62353;SDS011;48391;49.184;2.418;2023-01-09T00:24:17;3.35;;;0.60;;
62353;SDS011;48391;49.184;2.418;2023-01-09T00:26:43;2.20;;;0.57;;
62353;SDS011;48391;49.184;2.418;2023-01-09T00:29:09;3.17;;;0.60;;
62353;SDS011;48391;49.184;2.418;2023-01-09T00:31:35;0.93;;;0.80;;
62353;SDS011;48391;49.184;2.418;2023-01-09T00:34:03;4.80;;;1.33;;
62353;SDS011;48391;49.184;2.418;2023-01-09T00:36:29;3.38;;;0.57;;
62353;SDS011;48391;49.184;2.418;2023-01-09T00:38:56;7.45;;;1.13;;
62353;SDS011;48391;49.184;2.418;2023-01-09T00:41:23;6.68;;;0.93;;
62353;SDS011;48391;49.184;2.418;2023-01-09T00:43:52;3.03;;;0.43;;
62353;SDS011;48391;49.184;2.418;2023-01-09T00:46:19;8.35;;;1.25;;
62353;SDS011;48391;49.184;2.418;2023-01-09T00:48:46;6.85;;;1.20;;
62353;SDS011;48391;49.184;2.418;2023-01-09T00:51:13;4.47;;;0.60;;
62353;SDS011;48391;49.184;2.418;2023-01-09T00:53:40;2.75;;;0.80;;
62353;SDS011;48391;49.184;2.418;2023-01-09T00:56:09;4.60;;;1.20;;
62353;SDS011;48391;49.184;2.418;2023-01-09T00:58:36;6.95;;;0.90;;
62353;SDS011;48391;49.184;2.418;2023-01-09T01:01:02;6.38;;;1.70;;
62353;SDS011;48391;49.184;2.418;2023-01-09T01:03:28;6.80;;;1.85;;
62353;SDS011;48391;49.184;2.418;2023-01-09T01:05:54;4.82;;;0.95;;
62353;SDS011;48391;49.184;2.418;2023-01-09T01:08:39;4.15;;;0.88;;
62353;SDS011;48391;49.184;2.418;2023-01-09T01:11:05;5.05;;;1.70;;
62353;SDS011;48391;49.184;2.418;2023-01-09T01:13:34;7.07;;;1.30;;
62353;SDS011;48391;49.184;2.418;2023-01-09T01:16:02;6.72;;;1.80;;
62353;SDS011;48391;49.184;2.418;2023-01-09T01:18:28;3.85;;;1.15;;
62353;SDS011;48391;49.184;2.418;2023-01-09T01:20:54;4.75;;;1.30;;
62353;SDS011;48391;49.184;2.418;2023-01-09T01:23:20;7.35;;;2.13;;
62353;SDS011;48391;49.184;2.418;2023-01-09T01:25:46;7.10;;;1.00;;
62353;SDS011;48391;49.184;2.418;2023-01-09T01:28:13;5.40;;;1.05;;
62353;SDS011;48391;49.184;2.418;2023-01-09T01:30:39;12.68;;;2.55;;
62353;SDS011;48391;49.184;2.418;2023-01-09T01:33:06;11.35;;;1.65;;
62353;SDS011;48391;49.184;2.418;2023-01-09T01:35:32;10.20;;;2.92;;
62353;SDS011;48391;49.184;2.418;2023-01-09T01:37:58;10.73;;;2.40;;
62353;SDS011;48391;49.184;2.418;2023-01-09T01:40:24;8.93;;;1.95;;
62353;SDS011;48391;49.184;2.418;2023-01-09T01:42:51;7.80;;;1.73;;
62353;SDS011;48391;49.184;2.418;2023-01-09T09:02:43;2.33;;;0.50;;
62353;SDS011;48391;49.184;2.418;2023-01-09T09:05:09;5.65;;;0.50;;
62353;SDS011;48391;49.184;2.418;2023-01-09T09:07:35;4.22;;;1.60;;
62353;SDS011;48391;49.184;2.418;2023-01-09T09:10:02;3.28;;;0.75;;
62353;SDS011;48391;49.184;2.418;2023-01-09T09:12:30;3.28;;;0.50;;
62353;SDS011;48391;49.184;2.418;2023-01-09T09:14:56;2.90;;;0.65;;
62353;SDS011;48391;49.184;2.418;2023-01-09T09:17:40;0.40;;;0.10;;
62353;SDS011;48391;49.184;2.418;2023-01-09T09:20:07;2.50;;;0.50;;
62353;SDS011;48391;49.184;2.418;2023-01-09T09:22:34;4.43;;;0.82;;
62353;SDS011;48391;49.184;2.418;2023-01-09T09:25:00;1.67;;;1.02;;
62353;SDS011;48391;49.184;2.418;2023-01-09T09:27:28;2.53;;;1.00;;
62353;SDS011;48391;49.184;2.418;2023-01-09T09:29:54;2.65;;;0.57;;
62353;SDS011;48391;49.184;2.418;2023-01-09T09:32:20;3.97;;;1.27;;
62353;SDS011;48391;49.184;2.418;2023-01-09T09:34:46;4.10;;;1.38;;
62353;SDS011;48391;49.184;2.418;2023-01-09T09:37:12;2.92;;;0.43;;
62353;SDS011;48391;49.184;2.418;2023-01-09T09:39:38;0.93;;;0.30;;
62353;SDS011;48391;49.184;2.418;2023-01-09T09:47:55;2.72;;;0.25;;
62353;SDS011;48391;49.184;2.418;2023-01-09T09:50:28;1.15;;;0.30;;
62353;SDS011;48391;49.184;2.418;2023-01-09T09:53:04;1.05;;;0.60;;
62353;SDS011;48391;49.184;2.418;2023-01-09T09:55:36;3.00;;;0.82;;
62353;SDS011;48391;49.184;2.418;2023-01-09T09:58:04;3.05;;;0.85;;
62353;SDS011;48391;49.184;2.418;2023-01-09T10:00:31;1.70;;;0.50;;
62353;SDS011;48391;49.184;2.418;2023-01-09T10:02:59;3.53;;;0.77;;
62353;SDS011;48391;49.184;2.418;2023-01-09T10:05:28;1.95;;;0.40;;
62353;SDS011;48391;49.184;2.418;2023-01-09T10:07:55;1.08;;;0.60;;
62353;SDS011;48391;49.184;2.418;2023-01-09T10:12:58;1.90;;;0.75;;
62353;SDS011;48391;49.184;2.418;2023-01-09T10:15:45;0.50;;;0.20;;
62353;SDS011;48391;49.184;2.418;2023-01-09T10:21:02;0.25;;;0.05;;
62353;SDS011;48391;49.184;2.418;2023-01-09T10:23:44;0.45;;;0.00;;
62353;SDS011;48391;49.184;2.418;2023-01-09T10:26:31;0.10;;;0.00;;
62353;SDS011;48391;49.184;2.418;2023-01-09T10:39:17;0.68;;;0.20;;
62353;SDS011;48391;49.184;2.418;2023-01-09T10:41:51;0.77;;;0.10;;
62353;SDS011;48391;49.184;2.418;2023-01-09T10:44:20;0.00;;;0.00;;
62353;SDS011;48391;49.184;2.418;2023-01-09T10:46:48;0.98;;;0.22;;
62353;SDS011;48391;49.184;2.418;2023-01-09T10:49:16;1.00;;;0.10;;
62353;SDS011;48391;49.184;2.418;2023-01-09T10:51:47;2.60;;;0.50;;
62353;SDS011;48391;49.184;2.418;2023-01-09T10:54:15;1.75;;;0.35;;
62353;SDS011;48391;49.184;2.418;2023-01-09T10:56:44;0.82;;;0.50;;
62353;SDS011;48391;49.184;2.418;2023-01-09T10:59:11;0.57;;;0.43;;
62353;SDS011;48391;49.184;2.418;2023-01-09T11:01:38;1.00;;;0.32;;
62353;SDS011;48391;49.184;2.418;2023-01-09T11:07:11;0.38;;;0.20;;
62353;SDS011;48391;49.184;2.418;2023-01-09T11:12:26;0.77;;;0.40;;
62353;SDS011;48391;49.184;2.418;2023-01-09T11:14:52;2.25;;;0.80;;
62353;SDS011;48391;49.184;2.418;2023-01-09T11:17:19;2.53;;;0.47;;
62353;SDS011;48391;49.184;2.418;2023-01-09T11:20:05;0.80;;;0.40;;
62353;SDS011;48391;49.184;2.418;2023-01-09T11:22:44;1.48;;;0.32;;
62353;SDS011;48391;49.184;2.418;2023-01-09T11:25:15;3.33;;;0.45;;
62353;SDS011;48391;49.184;2.418;2023-01-09T11:27:41;0.32;;;0.15;;
62353;SDS011;48391;49.184;2.418;2023-01-09T11:32:36;1.48;;;0.90;;
62353;SDS011;48391;49.184;2.418;2023-01-09T11:35:21;2.47;;;0.10;;
62353;SDS011;48391;49.184;2.418;2023-01-09T11:37:49;1.08;;;0.68;;
62353;SDS011;48391;49.184;2.418;2023-01-09T11:40:22;1.33;;;0.20;;
62353;SDS011;48391;49.184;2.418;2023-01-09T11:43:01;1.58;;;0.28;;
62353;SDS011;48391;49.184;2.418;2023-01-09T11:45:31;1.10;;;0.43;;
62353;SDS011;48391;49.184;2.418;2023-01-09T11:47:58;1.10;;;0.80;;
62353;SDS011;48391;49.184;2.418;2023-01-09T11:50:26;3.17;;;0.65;;
62353;SDS011;48391;49.184;2.418;2023-01-09T11:55:37;0.60;;;0.60;;
62353;SDS011;48391;49.184;2.418;2023-01-09T11:58:03;1.70;;;0.55;;
62353;SDS011;48391;49.184;2.418;2023-01-09T12:00:31;1.08;;;0.40;;
62353;SDS011;48391;49.184;2.418;2023-01-09T12:05:47;3.55;;;0.68;;
62353;SDS011;48391;49.184;2.418;2023-01-09T12:13:34;5.00;;;0.60;;
62353;SDS011;48391;49.184;2.418;2023-01-09T12:21:35;4.15;;;0.77;;
62353;SDS011;48391;49.184;2.418;2023-01-09T12:24:24;4.07;;;1.00;;
62353;SDS011;48391;49.184;2.418;2023-01-09T12:48:01;4.55;;;0.90;;
62353;SDS011;48391;49.184;2.418;2023-01-09T12:53:15;4.25;;;1.05;;
62353;SDS011;48391;49.184;2.418;2023-01-09T12:56:18;4.45;;;0.93;;
62353;SDS011;48391;49.184;2.418;2023-01-09T13:01:31;4.93;;;1.25;;
62353;SDS011;48391;49.184;2.418;2023-01-09T13:04:00;2.55;;;0.63;;
62353;SDS011;48391;49.184;2.418;2023-01-09T13:06:28;8.32;;;1.13;;
62353;SDS011;48391;49.184;2.418;2023-01-09T13:09:06;3.65;;;1.33;;
62353;SDS011;48391;49.184;2.418;2023-01-09T13:14:12;1.30;;;0.28;;
62353;SDS011;48391;49.184;2.418;2023-01-09T13:16:41;2.33;;;0.20;;
62353;SDS011;48391;49.184;2.418;2023-01-09T13:21:39;2.45;;;0.15;;
62353;SDS011;48391;49.184;2.418;2023-01-09T13:29:27;4.00;;;0.73;;
62353;SDS011;48391;49.184;2.418;2023-01-09T13:34:31;3.13;;;0.60;;
62353;SDS011;48391;49.184;2.418;2023-01-09T13:36:58;2.53;;;0.90;;
62353;SDS011;48391;49.184;2.418;2023-01-09T13:39:29;1.48;;;0.50;;
62353;SDS011;48391;49.184;2.418;2023-01-09T13:44:44;2.80;;;0.95;;
62353;SDS011;48391;49.184;2.418;2023-01-09T13:47:29;3.13;;;0.43;;
62353;SDS011;48391;49.184;2.418;2023-01-09T13:49:57;1.38;;;0.25;;
62353;SDS011;48391;49.184;2.418;2023-01-09T13:52:32;0.63;;;0.20;;
62353;SDS011;48391;49.184;2.418;2023-01-09T13:55:01;1.58;;;0.43;;
62353;SDS011;48391;49.184;2.418;2023-01-09T14:05:14;1.27;;;0.35;;
62353;SDS011;48391;49.184;2.418;2023-01-09T14:07:41;3.55;;;0.90;;
62353;SDS011;48391;49.184;2.418;2023-01-09T14:12:44;1.00;;;0.60;;
62353;SDS011;48391;49.184;2.418;2023-01-09T14:17:52;1.38;;;0.40;;
62353;SDS011;48391;49.184;2.418;2023-01-09T14:20:24;1.58;;;0.40;;
62353;SDS011;48391;49.184;2.418;2023-01-09T14:22:55;3.95;;;1.00;;
62353;SDS011;48391;49.184;2.418;2023-01-09T14:25:23;2.78;;;0.93;;
62353;SDS011;48391;49.184;2.418;2023-01-09T14:35:40;5.07;;;0.85;;
62353;SDS011;48391;49.184;2.418;2023-01-09T14:38:16;3.28;;;1.15;;
62353;SDS011;48391;49.184;2.418;2023-01-09T14:40:50;3.05;;;1.48;;
62353;SDS011;48391;49.184;2.418;2023-01-09T14:44:00;0.80;;;0.40;;
62353;SDS011;48391;49.184;2.418;2023-01-09T14:46:11;1.30;;;0.55;;
62353;SDS011;48391;49.184;2.418;2023-01-09T14:48:39;4.45;;;0.77;;
62353;SDS011;48391;49.184;2.418;2023-01-09T14:51:09;3.95;;;0.90;;
62353;SDS011;48391;49.184;2.418;2023-01-09T14:53:39;2.72;;;1.08;;
62353;SDS011;48391;49.184;2.418;2023-01-09T14:56:16;3.33;;;1.25;;
62353;SDS011;48391;49.184;2.418;2023-01-09T14:58:48;5.10;;;2.25;;
62353;SDS011;48391;49.184;2.418;2023-01-09T15:01:16;8.80;;;2.53;;
62353;SDS011;48391;49.184;2.418;2023-01-09T15:03:46;4.18;;;1.10;;
62353;SDS011;48391;49.184;2.418;2023-01-09T15:06:20;3.20;;;1.30;;
62353;SDS011;48391;49.184;2.418;2023-01-09T15:08:55;3.95;;;0.93;;
62353;SDS011;48391;49.184;2.418;2023-01-09T15:11:23;3.95;;;0.88;;
62353;SDS011;48391;49.184;2.418;2023-01-09T15:13:49;4.40;;;1.63;;
62353;SDS011;48391;49.184;2.418;2023-01-09T15:16:18;2.15;;;0.60;;
62353;SDS011;48391;49.184;2.418;2023-01-09T15:18:45;5.65;;;0.68;;
62353;SDS011;48391;49.184;2.418;2023-01-09T15:21:14;2.95;;;1.13;;
62353;SDS011;48391;49.184;2.418;2023-01-09T15:23:42;4.50;;;0.55;;
62353;SDS011;48391;49.184;2.418;2023-01-09T15:26:41;4.28;;;0.88;;
62353;SDS011;48391;49.184;2.418;2023-01-09T15:29:01;3.38;;;0.77;;
62353;SDS011;48391;49.184;2.418;2023-01-09T15:31:27;1.30;;;0.45;;
62353;SDS011;48391;49.184;2.418;2023-01-09T15:33:53;4.25;;;0.90;;
62353;SDS011;48391;49.184;2.418;2023-01-09T15:36:23;2.75;;;0.30;;
62353;SDS011;48391;49.184;2.418;2023-01-09T15:38:50;5.28;;;0.75;;
62353;SDS011;48391;49.184;2.418;2023-01-09T15:41:24;1.60;;;0.63;;
62353;SDS011;48391;49.184;2.418;2023-01-09T15:44:20;1.02;;;0.60;;
62353;SDS011;48391;49.184;2.418;2023-01-09T15:46:47;9.02;;;2.17;;
62353;SDS011;48391;49.184;2.418;2023-01-09T15:49:14;4.10;;;0.82;;
62353;SDS011;48391;49.184;2.418;2023-01-09T15:51:41;4.70;;;0.85;;
62353;SDS011;48391;49.184;2.418;2023-01-09T15:54:18;4.38;;;1.88;;
62353;SDS011;48391;49.184;2.418;2023-01-09T15:56:45;4.03;;;1.85;;
62353;SDS011;48391;49.184;2.418;2023-01-09T15:59:21;1.75;;;1.00;;
62353;SDS011;48391;49.184;2.418;2023-01-09T16:01:53;5.43;;;1.23;;
62353;SDS011;48391;49.184;2.418;2023-01-09T16:04:40;3.95;;;0.90;;
62353;SDS011;48391;49.184;2.418;2023-01-09T16:07:09;7.00;;;1.20;;
62353;SDS011;48391;49.184;2.418;2023-01-09T16:09:37;2.42;;;1.15;;
62353;SDS011;48391;49.184;2.418;2023-01-09T16:12:03;4.28;;;1.38;;
62353;SDS011;48391;49.184;2.418;2023-01-09T16:17:00;4.97;;;1.15;;
62353;SDS011;48391;49.184;2.418;2023-01-09T16:19:27;9.82;;;2.50;;
62353;SDS011;48391;49.184;2.418;2023-01-09T16:21:55;8.68;;;1.80;;
62353;SDS011;48391;49.184;2.418;2023-01-09T16:24:25;7.03;;;2.05;;
62353;SDS011;48391;49.184;2.418;2023-01-09T16:29:37;6.85;;;1.88;;
62353;SDS011;48391;49.184;2.418;2023-01-09T16:32:04;5.38;;;2.03;;
62353;SDS011;48391;49.184;2.418;2023-01-09T16:34:34;4.40;;;1.30;;
62353;SDS011;48391;49.184;2.418;2023-01-09T16:37:00;1.73;;;1.38;;
62353;SDS011;48391;49.184;2.418;2023-01-09T16:39:27;6.63;;;1.52;;
62353;SDS011;48391;49.184;2.418;2023-01-09T16:41:55;7.13;;;1.10;;
62353;SDS011;48391;49.184;2.418;2023-01-09T16:44:40;3.15;;;1.30;;
62353;SDS011;48391;49.184;2.418;2023-01-09T16:47:08;4.80;;;2.03;;
62353;SDS011;48391;49.184;2.418;2023-01-09T16:49:35;4.22;;;1.23;;
62353;SDS011;48391;49.184;2.418;2023-01-09T16:52:01;4.57;;;1.52;;
62353;SDS011;48391;49.184;2.418;2023-01-09T16:54:27;5.60;;;1.83;;
62353;SDS011;48391;49.184;2.418;2023-01-09T16:56:54;3.58;;;1.10;;
62353;SDS011;48391;49.184;2.418;2023-01-09T16:59:21;6.15;;;1.50;;
62353;SDS011;48391;49.184;2.418;2023-01-09T17:01:51;5.20;;;1.75;;
62353;SDS011;48391;49.184;2.418;2023-01-09T17:04:17;14.02;;;2.40;;
62353;SDS011;48391;49.184;2.418;2023-01-09T17:06:44;11.18;;;2.22;;
62353;SDS011;48391;49.184;2.418;2023-01-09T17:09:26;8.63;;;2.40;;
62353;SDS011;48391;49.184;2.418;2023-01-09T17:11:52;2.88;;;1.08;;
62353;SDS011;48391;49.184;2.418;2023-01-09T17:14:18;9.15;;;2.38;;
62353;SDS011;48391;49.184;2.418;2023-01-09T17:16:44;4.18;;;2.13;;
62353;SDS011;48391;49.184;2.418;2023-01-09T17:19:16;4.45;;;1.63;;
62353;SDS011;48391;49.184;2.418;2023-01-09T17:21:43;10.05;;;2.65;;
62353;SDS011;48391;49.184;2.418;2023-01-09T17:24:09;4.65;;;3.22;;
62353;SDS011;48391;49.184;2.418;2023-01-09T17:26:54;9.60;;;5.45;;
62353;SDS011;48391;49.184;2.418;2023-01-09T17:29:39;14.57;;;4.43;;
62353;SDS011;48391;49.184;2.418;2023-01-09T17:32:05;14.05;;;4.43;;
62353;SDS011;48391;49.184;2.418;2023-01-09T17:34:31;8.23;;;2.92;;
62353;SDS011;48391;49.184;2.418;2023-01-09T17:36:58;9.65;;;2.65;;
62353;SDS011;48391;49.184;2.418;2023-01-09T17:39:24;7.75;;;3.55;;
62353;SDS011;48391;49.184;2.418;2023-01-09T17:41:50;4.30;;;2.10;;
62353;SDS011;48391;49.184;2.418;2023-01-09T17:44:17;5.53;;;2.00;;
62353;SDS011;48391;49.184;2.418;2023-01-09T17:46:43;7.53;;;2.03;;
62353;SDS011;48391;49.184;2.418;2023-01-09T17:49:13;4.88;;;1.30;;
62353;SDS011;48391;49.184;2.418;2023-01-09T17:51:40;2.97;;;1.75;;
62353;SDS011;48391;49.184;2.418;2023-01-09T17:54:06;4.38;;;1.27;;
62353;SDS011;48391;49.184;2.418;2023-01-09T17:56:33;7.55;;;1.15;;
62353;SDS011;48391;49.184;2.418;2023-01-09T17:59:01;6.40;;;1.48;;
62353;SDS011;48391;49.184;2.418;2023-01-09T18:01:27;9.60;;;1.60;;
62353;SDS011;48391;49.184;2.418;2023-01-09T18:03:53;8.43;;;2.63;;
62353;SDS011;48391;49.184;2.418;2023-01-09T18:06:19;11.45;;;3.40;;
62353;SDS011;48391;49.184;2.418;2023-01-09T18:08:46;8.65;;;3.10;;
62353;SDS011;48391;49.184;2.418;2023-01-09T18:11:13;11.52;;;2.55;;
62353;SDS011;48391;49.184;2.418;2023-01-09T18:13:41;8.13;;;1.85;;
62353;SDS011;48391;49.184;2.418;2023-01-09T18:16:08;4.95;;;1.20;;
62353;SDS011;48391;49.184;2.418;2023-01-09T18:18:34;3.60;;;0.88;;
62353;SDS011;48391;49.184;2.418;2023-01-09T18:21:02;1.77;;;0.60;;
62353;SDS011;48391;49.184;2.418;2023-01-09T18:23:29;10.25;;;0.82;;
62353;SDS011;48391;49.184;2.418;2023-01-09T18:25:55;21.23;;;9.10;;
62353;SDS011;48391;49.184;2.418;2023-01-09T18:28:21;5.03;;;2.40;;
62353;SDS011;48391;49.184;2.418;2023-01-09T18:30:48;7.65;;;3.60;;
62353;SDS011;48391;49.184;2.418;2023-01-09T18:33:15;10.55;;;5.10;;
62353;SDS011;48391;49.184;2.418;2023-01-09T18:35:42;8.55;;;3.72;;
62353;SDS011;48391;49.184;2.418;2023-01-09T18:38:08;5.10;;;1.67;;
62353;SDS011;48391;49.184;2.418;2023-01-09T18:40:34;5.43;;;1.88;;
62353;SDS011;48391;49.184;2.418;2023-01-09T18:43:01;5.28;;;1.60;;
62353;SDS011;48391;49.184;2.418;2023-01-09T18:45:29;5.90;;;1.58;;
62353;SDS011;48391;49.184;2.418;2023-01-09T18:48:05;3.17;;;0.95;;
62353;SDS011;48391;49.184;2.418;2023-01-09T18:50:32;2.22;;;0.65;;
62353;SDS011;48391;49.184;2.418;2023-01-09T18:52:58;5.20;;;1.55;;
62353;SDS011;48391;49.184;2.418;2023-01-09T18:55:24;3.15;;;0.88;;
62353;SDS011;48391;49.184;2.418;2023-01-09T18:57:54;2.17;;;0.65;;
62353;SDS011;48391;49.184;2.418;2023-01-09T19:00:23;1.88;;;0.52;;
62353;SDS011;48391;49.184;2.418;2023-01-09T19:02:49;2.95;;;0.80;;
62353;SDS011;48391;49.184;2.418;2023-01-09T19:05:15;2.38;;;1.52;;
62353;SDS011;48391;49.184;2.418;2023-01-09T19:07:41;2.42;;;1.15;;
62353;SDS011;48391;49.184;2.418;2023-01-09T19:10:07;3.22;;;2.30;;
62353;SDS011;48391;49.184;2.418;2023-01-09T19:12:33;3.15;;;1.75;;
62353;SDS011;48391;49.184;2.418;2023-01-09T19:14:59;8.23;;;3.63;;
62353;SDS011;48391;49.184;2.418;2023-01-09T19:17:25;8.13;;;3.25;;
62353;SDS011;48391;49.184;2.418;2023-01-09T19:19:51;9.95;;;2.97;;
62353;SDS011;48391;49.184;2.418;2023-01-09T19:22:18;7.40;;;2.95;;
62353;SDS011;48391;49.184;2.418;2023-01-09T19:24:44;14.88;;;2.95;;
62353;SDS011;48391;49.184;2.418;2023-01-09T19:27:10;5.68;;;1.90;;
62353;SDS011;48391;49.184;2.418;2023-01-09T19:29:36;4.57;;;2.13;;
62353;SDS011;48391;49.184;2.418;2023-01-09T19:32:02;6.43;;;2.72;;
62353;SDS011;48391;49.184;2.418;2023-01-09T19:34:32;8.90;;;2.65;;
62353;SDS011;48391;49.184;2.418;2023-01-09T19:36:58;5.00;;;1.95;;
62353;SDS011;48391;49.184;2.418;2023-01-09T19:39:24;12.40;;;2.45;;
62353;SDS011;48391;49.184;2.418;2023-01-09T19:41:51;5.22;;;2.22;;
62353;SDS011;48391;49.184;2.418;2023-01-09T19:44:17;7.15;;;2.88;;
62353;SDS011;48391;49.184;2.418;2023-01-09T19:46:44;7.60;;;2.17;;
62353;SDS011;48391;49.184;2.418;2023-01-09T19:49:10;5.13;;;2.45;;
62353;SDS011;48391;49.184;2.418;2023-01-09T19:51:36;5.03;;;1.70;;
62353;SDS011;48391;49.184;2.418;2023-01-09T19:54:02;6.75;;;1.90;;
62353;SDS011;48391;49.184;2.418;2023-01-09T19:56:32;9.73;;;2.53;;
62353;SDS011;48391;49.184;2.418;2023-01-09T19:59:08;8.35;;;3.08;;
62353;SDS011;48391;49.184;2.418;2023-01-09T20:01:35;11.48;;;2.92;;
62353;SDS011;48391;49.184;2.418;2023-01-09T20:04:02;9.73;;;2.47;;
62353;SDS011;48391;49.184;2.418;2023-01-09T20:06:34;10.13;;;1.45;;
62353;SDS011;48391;49.184;2.418;2023-01-09T20:09:03;5.15;;;1.70;;
62353;SDS011;48391;49.184;2.418;2023-01-09T20:11:30;14.70;;;3.00;;
62353;SDS011;48391;49.184;2.418;2023-01-09T20:13:56;8.80;;;2.80;;
62353;SDS011;48391;49.184;2.418;2023-01-09T20:16:26;8.18;;;3.47;;
62353;SDS011;48391;49.184;2.418;2023-01-09T20:18:53;6.30;;;2.90;;
62353;SDS011;48391;49.184;2.418;2023-01-09T20:21:20;8.02;;;2.80;;
62353;SDS011;48391;49.184;2.418;2023-01-09T20:23:50;5.80;;;2.53;;
62353;SDS011;48391;49.184;2.418;2023-01-09T20:26:17;7.25;;;2.92;;
62353;SDS011;48391;49.184;2.418;2023-01-09T20:28:43;9.52;;;3.40;;
62353;SDS011;48391;49.184;2.418;2023-01-09T20:31:10;13.68;;;2.55;;
62353;SDS011;48391;49.184;2.418;2023-01-09T20:33:37;8.95;;;3.10;;
62353;SDS011;48391;49.184;2.418;2023-01-09T20:36:03;8.15;;;2.60;;
62353;SDS011;48391;49.184;2.418;2023-01-09T20:38:33;9.70;;;2.05;;
62353;SDS011;48391;49.184;2.418;2023-01-09T20:41:04;8.07;;;2.63;;
62353;SDS011;48391;49.184;2.418;2023-01-09T20:43:32;12.73;;;3.28;;
62353;SDS011;48391;49.184;2.418;2023-01-09T20:46:02;5.60;;;2.38;;
62353;SDS011;48391;49.184;2.418;2023-01-09T20:48:28;11.93;;;2.85;;
62353;SDS011;48391;49.184;2.418;2023-01-09T20:50:54;13.50;;;3.60;;
62353;SDS011;48391;49.184;2.418;2023-01-09T20:53:21;9.70;;;3.97;;
